createdAt,value
2017-10-01T00:00:20.967Z,59.43
2017-10-01T00:01:20.952Z,59.65
2017-10-01T00:02:20.938Z,59.81
2017-10-01T00:03:20.923Z,59.43
2017-10-01T00:04:20.908Z,59.33
2017-10-01T00:05:20.894Z,59.43
2017-10-01T00:06:20.887Z,59.91
2017-10-01T00:07:20.865Z,60.00
2017-10-01T00:08:20.851Z,60.00
2017-10-01T00:09:20.837Z,59.91
2017-10-01T00:10:20.823Z,60.00
2017-10-01T00:11:20.808Z,60.10
2017-10-01T00:12:20.793Z,59.91
2017-10-01T00:13:20.805Z,59.43
2017-10-01T00:14:20.766Z,59.43
2017-10-01T00:15:20.750Z,59.43
2017-10-01T00:16:20.736Z,59.52
2017-10-01T00:17:20.722Z,59.62
2017-10-01T00:18:20.707Z,59.43
2017-10-01T00:19:20.693Z,59.91
2017-10-01T00:20:20.678Z,59.62
2017-10-01T00:21:20.664Z,59.43
2017-10-01T00:22:20.650Z,59.62
2017-10-01T00:23:20.634Z,59.43
2017-10-01T00:24:20.621Z,59.43
2017-10-01T00:25:20.606Z,59.52
2017-10-01T00:26:20.592Z,59.72
2017-10-01T00:27:20.580Z,60.00
2017-10-01T00:28:20.562Z,59.81
2017-10-01T00:29:20.548Z,59.81
2017-10-01T00:30:20.534Z,59.81
2017-10-01T00:31:20.519Z,59.52
2017-10-01T00:32:20.507Z,59.62
2017-10-01T00:33:20.490Z,59.81
2017-10-01T00:34:20.494Z,59.81
2017-10-01T00:35:20.461Z,59.62
2017-10-01T00:36:20.447Z,59.72
2017-10-01T00:37:20.433Z,59.33
2017-10-01T00:38:20.419Z,59.52
2017-10-01T00:39:20.404Z,59.43
2017-10-01T00:40:20.389Z,59.62
2017-10-01T00:41:20.375Z,59.52
2017-10-01T00:42:20.361Z,59.62
2017-10-01T00:43:20.347Z,59.81
2017-10-01T00:44:20.331Z,59.91
2017-10-01T00:45:20.318Z,59.91
2017-10-01T00:46:20.305Z,59.52
2017-10-01T00:47:20.287Z,59.72
2017-10-01T00:48:20.273Z,59.52
2017-10-01T00:49:20.259Z,59.33
2017-10-01T00:50:20.246Z,59.52
2017-10-01T00:51:20.230Z,59.62
2017-10-01T00:52:20.215Z,59.62
2017-10-01T00:53:20.202Z,59.72
2017-10-01T00:54:20.187Z,59.52
2017-10-01T00:55:20.171Z,60.00
2017-10-01T00:56:20.161Z,59.81
2017-10-01T00:57:20.144Z,59.52
2017-10-01T00:58:20.129Z,59.52
2017-10-01T00:59:20.114Z,59.52
2017-10-01T01:00:20.100Z,59.72
2017-10-01T01:01:20.085Z,59.52
2017-10-01T01:02:20.071Z,59.81
2017-10-01T01:03:20.055Z,59.81
2017-10-01T01:04:20.042Z,59.52
2017-10-01T01:05:20.027Z,59.52
2017-10-01T01:06:20.013Z,59.52
2017-10-01T01:07:19.997Z,59.72
2017-10-01T01:08:19.983Z,59.62
2017-10-01T01:09:19.969Z,59.62
2017-10-01T01:10:19.954Z,59.81
2017-10-01T01:11:19.940Z,59.62
2017-10-01T01:12:19.925Z,59.81
2017-10-01T01:13:19.910Z,60.00
2017-10-01T01:14:19.897Z,59.62
2017-10-01T01:15:19.881Z,59.62
2017-10-01T01:16:19.866Z,59.72
2017-10-01T01:17:19.852Z,59.72
2017-10-01T01:18:19.837Z,59.91
2017-10-01T01:19:19.823Z,59.62
2017-10-01T01:20:19.808Z,59.62
2017-10-01T01:21:19.797Z,59.72
2017-10-01T01:22:19.780Z,59.72
2017-10-01T01:23:19.764Z,59.81
2017-10-01T01:24:19.750Z,60.00
2017-10-01T01:25:19.736Z,60.00
2017-10-01T01:26:19.721Z,59.81
2017-10-01T01:27:19.706Z,59.52
2017-10-01T01:28:19.691Z,59.81
2017-10-01T01:29:19.683Z,59.91
2017-10-01T01:30:19.663Z,59.72
2017-10-01T01:31:19.647Z,59.62
2017-10-01T01:32:19.633Z,59.62
2017-10-01T01:33:19.619Z,60.00
2017-10-01T01:34:19.606Z,59.72
2017-10-01T01:35:19.589Z,59.52
2017-10-01T01:36:19.575Z,59.52
2017-10-01T01:37:19.562Z,59.69
2017-10-01T01:38:19.546Z,59.78
2017-10-01T01:39:19.531Z,59.59
2017-10-01T01:40:19.517Z,59.62
2017-10-01T01:41:19.502Z,59.40
2017-10-01T01:42:19.487Z,59.62
2017-10-01T01:43:19.473Z,59.91
2017-10-01T01:44:19.458Z,60.00
2017-10-01T01:45:19.444Z,59.81
2017-10-01T01:46:19.429Z,59.91
2017-10-01T01:47:19.414Z,59.33
2017-10-01T01:48:19.400Z,59.81
2017-10-01T01:49:19.386Z,59.97
2017-10-01T01:50:19.370Z,59.91
2017-10-01T01:51:19.355Z,59.43
2017-10-01T01:52:19.342Z,59.81
2017-10-01T01:53:19.326Z,59.69
2017-10-01T01:54:19.312Z,59.62
2017-10-01T01:55:19.297Z,59.52
2017-10-01T01:56:19.282Z,59.78
2017-10-01T01:57:19.268Z,59.81
2017-10-01T01:58:19.253Z,59.81
2017-10-01T01:59:19.238Z,59.72
2017-10-01T02:00:19.224Z,59.43
2017-10-01T02:01:19.209Z,59.72
2017-10-01T02:02:19.195Z,59.49
2017-10-01T02:03:19.179Z,60.00
2017-10-01T02:04:19.165Z,59.88
2017-10-01T02:05:19.151Z,59.78
2017-10-01T02:06:19.136Z,59.88
2017-10-01T02:07:19.121Z,59.49
2017-10-01T02:08:19.107Z,59.33
2017-10-01T02:09:19.092Z,59.88
2017-10-01T02:10:19.077Z,59.81
2017-10-01T02:11:19.061Z,59.49
2017-10-01T02:12:19.048Z,59.69
2017-10-01T02:13:19.033Z,59.69
2017-10-01T02:14:19.018Z,59.69
2017-10-01T02:15:19.003Z,59.69
2017-10-01T02:16:18.988Z,59.59
2017-10-01T02:17:18.974Z,59.49
2017-10-01T02:18:18.960Z,59.30
2017-10-01T02:19:18.944Z,59.59
2017-10-01T02:20:18.929Z,59.49
2017-10-01T02:21:18.917Z,59.78
2017-10-01T02:22:18.901Z,59.69
2017-10-01T02:23:18.886Z,59.49
2017-10-01T02:24:18.871Z,59.78
2017-10-01T02:25:18.856Z,59.69
2017-10-01T02:26:18.842Z,59.49
2017-10-01T02:27:18.827Z,59.88
2017-10-01T02:28:18.813Z,59.49
2017-10-01T02:29:18.798Z,59.40
2017-10-01T02:30:18.784Z,59.49
2017-10-01T02:31:18.793Z,59.97
2017-10-01T02:32:18.753Z,59.59
2017-10-01T02:33:18.740Z,59.30
2017-10-01T02:34:18.726Z,59.78
2017-10-01T02:35:18.709Z,59.88
2017-10-01T02:36:18.696Z,59.97
2017-10-01T02:37:18.678Z,59.78
2017-10-01T02:38:18.665Z,59.88
2017-10-01T02:39:18.650Z,60.17
2017-10-01T02:40:18.636Z,59.97
2017-10-01T02:41:18.622Z,59.97
2017-10-01T02:42:18.607Z,59.69
2017-10-01T02:43:18.592Z,59.78
2017-10-01T02:44:18.579Z,59.88
2017-10-01T02:45:18.563Z,60.07
2017-10-01T02:46:18.549Z,59.69
2017-10-01T02:47:18.534Z,60.07
2017-10-01T02:48:18.521Z,59.78
2017-10-01T02:49:18.507Z,60.17
2017-10-01T02:50:18.490Z,60.27
2017-10-01T02:51:18.475Z,59.78
2017-10-01T02:52:18.459Z,60.07
2017-10-01T02:53:18.445Z,59.88
2017-10-01T02:54:18.431Z,59.69
2017-10-01T02:55:18.415Z,59.59
2017-10-01T02:56:18.401Z,59.69
2017-10-01T02:57:18.387Z,59.78
2017-10-01T02:58:18.372Z,59.88
2017-10-01T02:59:18.357Z,59.59
2017-10-01T03:00:18.342Z,60.17
2017-10-01T03:01:18.328Z,59.49
2017-10-01T03:02:18.314Z,60.07
2017-10-01T03:03:18.298Z,59.49
2017-10-01T03:04:18.284Z,60.07
2017-10-01T03:05:18.269Z,60.17
2017-10-01T03:06:18.255Z,60.07
2017-10-01T03:07:18.239Z,60.17
2017-10-01T03:08:18.224Z,60.75
2017-10-01T03:09:18.209Z,60.07
2017-10-01T03:10:18.197Z,60.36
2017-10-01T03:11:18.180Z,60.36
2017-10-01T03:12:18.165Z,60.46
2017-10-01T03:13:18.151Z,60.27
2017-10-01T03:14:18.137Z,60.07
2017-10-01T03:15:18.122Z,60.17
2017-10-01T03:16:18.107Z,60.36
2017-10-01T03:17:18.092Z,60.65
2017-10-01T03:18:18.077Z,60.75
2017-10-01T03:19:18.062Z,59.78
2017-10-01T03:20:18.047Z,59.88
2017-10-01T03:21:18.033Z,60.27
2017-10-01T03:22:18.019Z,60.27
2017-10-01T03:23:18.003Z,59.78
2017-10-01T03:24:17.988Z,60.07
2017-10-01T03:25:17.975Z,60.07
2017-10-01T03:26:17.962Z,60.07
2017-10-01T03:27:17.945Z,59.97
2017-10-01T03:28:17.930Z,59.78
2017-10-01T03:29:17.917Z,60.17
2017-10-01T03:30:17.903Z,59.88
2017-10-01T03:31:17.887Z,59.97
2017-10-01T03:32:17.872Z,60.07
2017-10-01T03:33:17.858Z,60.07
2017-10-01T03:34:17.843Z,60.07
2017-10-01T03:35:17.828Z,60.17
2017-10-01T03:36:17.821Z,60.07
2017-10-01T03:37:17.797Z,60.17
2017-10-01T03:38:17.784Z,60.07
2017-10-01T03:39:17.769Z,60.84
2017-10-01T03:40:17.755Z,60.27
2017-10-01T03:41:17.740Z,60.07
2017-10-01T03:42:17.725Z,60.07
2017-10-01T03:43:17.710Z,60.36
2017-10-01T03:44:17.697Z,60.27
2017-10-01T03:45:17.681Z,60.07
2017-10-01T03:46:17.667Z,60.17
2017-10-01T03:47:17.652Z,59.97
2017-10-01T03:48:17.637Z,60.36
2017-10-01T03:49:17.623Z,59.78
2017-10-01T03:50:17.608Z,60.27
2017-10-01T03:51:17.592Z,60.07
2017-10-01T03:52:17.584Z,59.88
2017-10-01T03:53:17.564Z,59.88
2017-10-01T03:54:17.549Z,60.07
2017-10-01T03:55:17.534Z,60.17
2017-10-01T03:56:17.522Z,60.07
2017-10-01T03:57:17.505Z,60.07
2017-10-01T03:58:17.493Z,60.17
2017-10-01T03:59:17.475Z,60.36
2017-10-01T04:00:17.460Z,60.27
2017-10-01T04:01:17.446Z,59.88
2017-10-01T04:02:17.432Z,59.88
2017-10-01T04:03:17.416Z,60.27
2017-10-01T04:04:17.401Z,60.07
2017-10-01T04:05:17.387Z,60.27
2017-10-01T04:06:17.371Z,59.97
2017-10-01T04:07:17.357Z,60.27
2017-10-01T04:08:17.343Z,60.27
2017-10-01T04:09:17.328Z,60.17
2017-10-01T04:10:17.314Z,59.59
2017-10-01T04:11:17.298Z,59.88
2017-10-01T04:12:17.283Z,60.27
2017-10-01T04:13:17.269Z,60.07
2017-10-01T04:14:17.259Z,59.69
2017-10-01T04:15:17.239Z,59.88
2017-10-01T04:16:17.225Z,59.78
2017-10-01T04:17:17.209Z,59.78
2017-10-01T04:18:17.194Z,60.07
2017-10-01T04:19:17.179Z,60.17
2017-10-01T04:20:17.167Z,60.07
2017-10-01T04:21:17.150Z,59.97
2017-10-01T04:22:17.136Z,60.27
2017-10-01T04:23:17.120Z,60.07
2017-10-01T04:24:17.105Z,59.88
2017-10-01T04:25:17.091Z,59.88
2017-10-01T04:26:17.077Z,60.07
2017-10-01T04:27:17.062Z,59.88
2017-10-01T04:28:17.047Z,60.07
2017-10-01T04:29:17.032Z,59.88
2017-10-01T04:30:17.018Z,59.69
2017-10-01T04:31:17.003Z,59.78
2017-10-01T04:32:16.988Z,59.88
2017-10-01T04:33:16.974Z,59.97
2017-10-01T04:34:16.959Z,59.30
2017-10-01T04:35:16.944Z,59.97
2017-10-01T04:36:16.929Z,59.88
2017-10-01T04:37:16.915Z,60.27
2017-10-01T04:38:16.900Z,59.88
2017-10-01T04:39:16.885Z,60.07
2017-10-01T04:40:16.870Z,59.78
2017-10-01T04:41:16.856Z,59.97
2017-10-01T04:42:16.841Z,59.97
2017-10-01T04:43:16.826Z,59.49
2017-10-01T04:44:16.812Z,59.78
2017-10-01T04:45:16.797Z,59.49
2017-10-01T04:46:16.782Z,60.17
2017-10-01T04:47:16.766Z,59.97
2017-10-01T04:48:16.752Z,59.78
2017-10-01T04:49:16.737Z,59.78
2017-10-01T04:50:16.723Z,60.17
2017-10-01T04:51:16.708Z,59.97
2017-10-01T04:52:16.693Z,59.88
2017-10-01T04:53:16.679Z,59.78
2017-10-01T04:54:16.665Z,59.69
2017-10-01T04:55:16.649Z,59.88
2017-10-01T04:56:16.633Z,59.78
2017-10-01T04:57:16.619Z,59.88
2017-10-01T04:58:16.605Z,59.88
2017-10-01T04:59:16.590Z,59.78
2017-10-01T05:00:16.575Z,60.75
2017-10-01T05:01:16.561Z,60.84
2017-10-01T05:02:16.546Z,59.52
2017-10-01T05:03:16.530Z,59.62
2017-10-01T05:04:16.516Z,59.52
2017-10-01T05:05:16.501Z,59.62
2017-10-01T05:06:16.487Z,59.33
2017-10-01T05:07:16.472Z,59.91
2017-10-01T05:08:16.456Z,59.91
2017-10-01T05:09:16.441Z,60.00
2017-10-01T05:10:16.427Z,60.20
2017-10-01T05:11:16.412Z,59.91
2017-10-01T05:12:16.397Z,59.91
2017-10-01T05:13:16.383Z,59.52
2017-10-01T05:14:16.370Z,60.00
2017-10-01T05:15:16.353Z,59.81
2017-10-01T05:16:16.339Z,59.81
2017-10-01T05:17:16.324Z,59.52
2017-10-01T05:18:16.309Z,59.72
2017-10-01T05:19:16.298Z,59.91
2017-10-01T05:20:16.279Z,60.10
2017-10-01T05:21:16.264Z,59.52
2017-10-01T05:22:16.251Z,59.62
2017-10-01T05:23:16.235Z,59.72
2017-10-01T05:24:16.220Z,59.81
2017-10-01T05:25:16.206Z,59.04
2017-10-01T05:26:16.191Z,58.65
2017-10-01T05:27:16.175Z,58.75
2017-10-01T05:28:16.161Z,58.95
2017-10-01T05:29:16.147Z,59.04
2017-10-01T05:30:16.133Z,58.85
2017-10-01T05:31:16.117Z,58.75
2017-10-01T05:32:16.103Z,58.65
2017-10-01T05:33:16.088Z,58.56
2017-10-01T05:34:16.074Z,58.17
2017-10-01T05:35:16.059Z,58.08
2017-10-01T05:36:16.044Z,58.37
2017-10-01T05:37:16.030Z,58.47
2017-10-01T05:38:16.016Z,58.47
2017-10-01T05:39:15.999Z,58.56
2017-10-01T05:40:15.985Z,58.47
2017-10-01T05:41:15.972Z,58.17
2017-10-01T05:42:15.956Z,58.11
2017-10-01T05:43:15.942Z,58.20
2017-10-01T05:44:15.927Z,57.79
2017-10-01T05:45:15.912Z,58.27
2017-10-01T05:46:15.897Z,58.17
2017-10-01T05:47:15.882Z,58.20
2017-10-01T05:48:15.872Z,57.98
2017-10-01T05:49:15.854Z,58.08
2017-10-01T05:50:15.839Z,58.17
2017-10-01T05:51:15.824Z,57.89
2017-10-01T05:52:15.808Z,58.08
2017-10-01T05:53:15.795Z,58.17
2017-10-01T05:54:15.781Z,58.17
2017-10-01T05:55:15.765Z,58.30
2017-10-01T05:56:15.750Z,58.01
2017-10-01T05:57:15.737Z,58.17
2017-10-01T05:58:15.722Z,58.17
2017-10-01T05:59:15.706Z,58.11
2017-10-01T06:00:15.693Z,58.30
2017-10-01T06:01:15.678Z,58.30
2017-10-01T06:02:15.664Z,58.30
2017-10-01T06:03:15.650Z,57.24
2017-10-01T06:04:15.634Z,57.43
2017-10-01T06:05:15.619Z,57.34
2017-10-01T06:06:15.605Z,57.50
2017-10-01T06:07:15.589Z,57.53
2017-10-01T06:08:15.575Z,57.62
2017-10-01T06:09:15.565Z,57.60
2017-10-01T06:10:15.547Z,57.43
2017-10-01T06:11:15.531Z,57.24
2017-10-01T06:12:15.518Z,57.62
2017-10-01T06:13:15.503Z,57.82
2017-10-01T06:14:15.489Z,57.82
2017-10-01T06:15:15.481Z,57.14
2017-10-01T06:16:15.459Z,57.14
2017-10-01T06:17:15.444Z,57.24
2017-10-01T06:18:15.433Z,56.76
2017-10-01T06:19:15.415Z,56.76
2017-10-01T06:20:15.401Z,56.95
2017-10-01T06:21:15.385Z,56.76
2017-10-01T06:22:15.372Z,56.85
2017-10-01T06:23:15.356Z,56.57
2017-10-01T06:24:15.342Z,56.76
2017-10-01T06:25:15.328Z,56.95
2017-10-01T06:26:15.314Z,56.95
2017-10-01T06:27:15.299Z,56.76
2017-10-01T06:28:15.285Z,56.57
2017-10-01T06:29:15.271Z,56.57
2017-10-01T06:30:15.255Z,56.66
2017-10-01T06:31:15.241Z,56.76
2017-10-01T06:32:15.227Z,56.57
2017-10-01T06:33:15.212Z,56.66
2017-10-01T06:34:15.225Z,56.47
2017-10-01T06:35:15.183Z,56.37
2017-10-01T06:36:15.168Z,56.09
2017-10-01T06:37:15.155Z,56.47
2017-10-01T06:38:15.140Z,56.47
2017-10-01T06:39:15.124Z,56.37
2017-10-01T06:40:15.111Z,56.09
2017-10-01T06:41:15.096Z,55.89
2017-10-01T06:42:15.082Z,56.09
2017-10-01T06:43:15.067Z,55.89
2017-10-01T06:44:15.053Z,56.09
2017-10-01T06:45:15.042Z,55.99
2017-10-01T06:46:15.025Z,56.09
2017-10-01T06:47:15.009Z,55.79
2017-10-01T06:48:14.995Z,55.79
2017-10-01T06:49:14.981Z,56.09
2017-10-01T06:50:14.966Z,55.79
2017-10-01T06:51:14.951Z,55.89
2017-10-01T06:52:14.937Z,55.99
2017-10-01T06:53:14.923Z,55.79
2017-10-01T06:54:14.908Z,56.09
2017-10-01T06:55:14.893Z,56.66
2017-10-01T06:56:14.879Z,56.47
2017-10-01T06:57:14.864Z,56.85
2017-10-01T06:58:14.851Z,56.09
2017-10-01T06:59:14.835Z,56.37
2017-10-01T07:00:14.821Z,56.57
2017-10-01T07:01:14.807Z,56.47
2017-10-01T07:02:14.793Z,56.37
2017-10-01T07:03:14.778Z,56.09
2017-10-01T07:04:14.763Z,56.57
2017-10-01T07:05:14.749Z,56.57
2017-10-01T07:06:14.735Z,56.40
2017-10-01T07:07:14.719Z,56.47
2017-10-01T07:08:14.706Z,56.57
2017-10-01T07:09:14.691Z,56.66
2017-10-01T07:10:14.680Z,56.76
2017-10-01T07:11:14.662Z,56.76
2017-10-01T07:12:14.647Z,56.57
2017-10-01T07:13:14.634Z,56.47
2017-10-01T07:14:14.618Z,56.66
2017-10-01T07:15:14.604Z,56.40
2017-10-01T07:16:14.589Z,56.47
2017-10-01T07:17:14.576Z,56.47
2017-10-01T07:18:14.562Z,56.21
2017-10-01T07:19:14.547Z,56.49
2017-10-01T07:20:14.532Z,56.49
2017-10-01T07:21:14.518Z,56.21
2017-10-01T07:22:14.504Z,56.47
2017-10-01T07:23:14.488Z,56.01
2017-10-01T07:24:14.474Z,56.49
2017-10-01T07:25:14.460Z,56.01
2017-10-01T07:26:14.447Z,56.21
2017-10-01T07:27:14.431Z,56.11
2017-10-01T07:28:14.417Z,56.01
2017-10-01T07:29:14.403Z,55.73
2017-10-01T07:30:14.396Z,55.73
2017-10-01T07:31:14.373Z,55.63
2017-10-01T07:32:14.359Z,55.73
2017-10-01T07:33:14.345Z,54.57
2017-10-01T07:34:14.331Z,54.76
2017-10-01T07:35:14.316Z,54.66
2017-10-01T07:36:14.302Z,54.66
2017-10-01T07:37:14.287Z,54.28
2017-10-01T07:38:14.274Z,53.61
2017-10-01T07:39:14.258Z,53.51
2017-10-01T07:40:14.244Z,53.70
2017-10-01T07:41:14.233Z,53.51
2017-10-01T07:42:14.217Z,53.31
2017-10-01T07:43:14.201Z,52.83
2017-10-01T07:44:14.189Z,53.13
2017-10-01T07:45:14.174Z,52.55
2017-10-01T07:46:14.160Z,52.73
2017-10-01T07:47:14.144Z,52.45
2017-10-01T07:48:14.130Z,52.35
2017-10-01T07:49:14.117Z,52.45
2017-10-01T07:50:14.105Z,52.45
2017-10-01T07:51:14.088Z,51.97
2017-10-01T07:52:14.073Z,51.87
2017-10-01T07:53:14.059Z,51.87
2017-10-01T07:54:14.045Z,51.68
2017-10-01T07:55:14.029Z,51.58
2017-10-01T07:56:14.017Z,51.77
2017-10-01T07:57:14.002Z,51.77
2017-10-01T07:58:13.988Z,51.68
2017-10-01T07:59:13.974Z,51.68
2017-10-01T08:00:13.959Z,51.77
2017-10-01T08:01:13.945Z,51.68
2017-10-01T08:02:13.931Z,52.06
2017-10-01T08:03:13.920Z,51.87
2017-10-01T08:04:13.901Z,51.39
2017-10-01T08:05:13.888Z,52.04
2017-10-01T08:06:13.872Z,51.65
2017-10-01T08:07:13.859Z,51.46
2017-10-01T08:08:13.846Z,51.77
2017-10-01T08:09:13.831Z,51.46
2017-10-01T08:10:13.816Z,51.65
2017-10-01T08:11:13.800Z,52.04
2017-10-01T08:12:13.787Z,51.94
2017-10-01T08:13:13.773Z,51.94
2017-10-01T08:14:13.758Z,51.75
2017-10-01T08:15:13.744Z,51.75
2017-10-01T08:16:13.730Z,52.13
2017-10-01T08:17:13.716Z,51.94
2017-10-01T08:18:13.702Z,51.94
2017-10-01T08:19:13.685Z,51.75
2017-10-01T08:20:13.684Z,52.04
2017-10-01T08:21:13.657Z,51.46
2017-10-01T08:22:13.643Z,51.65
2017-10-01T08:23:13.628Z,51.84
2017-10-01T08:24:13.615Z,52.04
2017-10-01T08:25:13.600Z,52.25
2017-10-01T08:26:13.617Z,51.97
2017-10-01T08:27:13.571Z,51.87
2017-10-01T08:28:13.559Z,51.48
2017-10-01T08:29:13.543Z,51.39
2017-10-01T08:30:13.528Z,51.22
2017-10-01T08:31:13.514Z,51.61
2017-10-01T08:32:13.499Z,51.89
2017-10-01T08:33:13.484Z,51.80
2017-10-01T08:34:13.471Z,51.51
2017-10-01T08:35:13.456Z,50.74
2017-10-01T08:36:13.442Z,51.87
2017-10-01T08:37:13.430Z,51.29
2017-10-01T08:38:13.414Z,51.89
2017-10-01T08:39:13.398Z,51.51
2017-10-01T08:40:13.384Z,52.06
2017-10-01T08:41:13.370Z,51.77
2017-10-01T08:42:13.357Z,52.19
2017-10-01T08:43:13.345Z,52.67
2017-10-01T08:44:13.327Z,51.70
2017-10-01T08:45:13.347Z,51.89
2017-10-01T08:46:13.299Z,51.70
2017-10-01T08:47:13.284Z,51.99
2017-10-01T08:48:13.270Z,51.41
2017-10-01T08:49:13.257Z,51.12
2017-10-01T08:50:13.242Z,51.22
2017-10-01T08:51:13.226Z,52.09
2017-10-01T08:52:13.212Z,51.99
2017-10-01T08:53:13.198Z,51.82
2017-10-01T08:54:13.184Z,51.80
2017-10-01T08:55:13.171Z,51.70
2017-10-01T08:56:13.155Z,52.01
2017-10-01T08:57:13.141Z,51.25
2017-10-01T08:58:13.127Z,51.25
2017-10-01T08:59:13.132Z,51.44
2017-10-01T09:00:13.099Z,51.53
2017-10-01T09:01:13.086Z,50.86
2017-10-01T09:02:13.071Z,51.44
2017-10-01T09:03:13.056Z,51.73
2017-10-01T09:04:13.041Z,51.05
2017-10-01T09:05:13.036Z,50.86
2017-10-01T09:06:13.014Z,50.47
2017-10-01T09:07:13.000Z,51.15
2017-10-01T09:08:12.990Z,50.76
2017-10-01T09:09:12.973Z,50.67
2017-10-01T09:10:12.958Z,50.84
2017-10-01T09:11:12.943Z,49.77
2017-10-01T09:12:12.930Z,49.94
2017-10-01T09:13:12.916Z,51.12
2017-10-01T09:14:12.904Z,50.45
2017-10-01T09:15:12.888Z,49.77
2017-10-01T09:16:12.874Z,49.77
2017-10-01T09:17:12.860Z,49.87
2017-10-01T09:18:12.847Z,49.77
2017-10-01T09:19:12.831Z,49.96
2017-10-01T09:20:12.818Z,49.87
2017-10-01T09:21:12.804Z,49.87
2017-10-01T09:22:12.792Z,49.77
2017-10-01T09:23:12.775Z,49.77
2017-10-01T09:24:12.762Z,49.87
2017-10-01T09:25:12.748Z,49.58
2017-10-01T09:26:12.734Z,50.38
2017-10-01T09:27:12.719Z,49.80
2017-10-01T09:28:12.710Z,49.60
2017-10-01T09:29:12.692Z,49.48
2017-10-01T09:30:12.678Z,49.22
2017-10-01T09:31:12.663Z,48.93
2017-10-01T09:32:12.650Z,49.12
2017-10-01T09:33:12.636Z,48.76
2017-10-01T09:34:12.623Z,48.25
2017-10-01T09:35:12.608Z,48.28
2017-10-01T09:36:12.595Z,48.47
2017-10-01T09:37:12.584Z,47.72
2017-10-01T09:38:12.568Z,47.14
2017-10-01T09:39:12.554Z,47.41
2017-10-01T09:40:12.541Z,47.70
2017-10-01T09:41:12.528Z,47.31
2017-10-01T09:42:12.515Z,47.14
2017-10-01T09:43:12.501Z,46.47
2017-10-01T09:44:12.489Z,46.47
2017-10-01T09:45:12.477Z,46.85
2017-10-01T09:46:12.461Z,46.15
2017-10-01T09:47:12.449Z,48.06
2017-10-01T09:48:12.436Z,48.06
2017-10-01T09:49:12.424Z,47.19
2017-10-01T09:50:12.410Z,47.58
2017-10-01T09:51:12.397Z,48.06
2017-10-01T09:52:12.384Z,48.81
2017-10-01T09:53:12.373Z,49.37
2017-10-01T09:54:12.358Z,49.77
2017-10-01T09:55:12.345Z,48.54
2017-10-01T09:56:12.333Z,46.92
2017-10-01T09:57:12.320Z,47.48
2017-10-01T09:58:12.307Z,49.22
2017-10-01T09:59:12.293Z,48.93
2017-10-01T10:00:12.280Z,48.64
2017-10-01T10:01:12.268Z,48.74
2017-10-01T10:02:12.256Z,48.74
2017-10-01T10:03:12.242Z,48.74
2017-10-01T10:04:12.229Z,48.66
2017-10-01T10:05:12.217Z,48.57
2017-10-01T10:06:12.204Z,48.28
2017-10-01T10:07:12.192Z,47.60
2017-10-01T10:08:12.181Z,47.89
2017-10-01T10:09:12.173Z,48.37
2017-10-01T10:10:12.154Z,47.96
2017-10-01T10:11:12.141Z,47.60
2017-10-01T10:12:12.129Z,47.19
2017-10-01T10:13:12.116Z,47.67
2017-10-01T10:14:12.104Z,47.80
2017-10-01T10:15:12.090Z,47.12
2017-10-01T10:16:12.078Z,47.02
2017-10-01T10:17:12.067Z,46.92
2017-10-01T10:18:12.055Z,47.50
2017-10-01T10:19:12.041Z,47.80
2017-10-01T10:20:12.029Z,48.47
2017-10-01T10:21:12.017Z,47.60
2017-10-01T10:22:12.005Z,47.80
2017-10-01T10:23:11.992Z,47.77
2017-10-01T10:24:11.979Z,48.74
2017-10-01T10:25:11.967Z,48.74
2017-10-01T10:26:11.955Z,48.16
2017-10-01T10:27:11.941Z,48.74
2017-10-01T10:28:11.929Z,48.54
2017-10-01T10:29:11.917Z,49.32
2017-10-01T10:30:11.904Z,48.93
2017-10-01T10:31:11.890Z,49.02
2017-10-01T10:32:11.877Z,48.74
2017-10-01T10:33:11.865Z,48.74
2017-10-01T10:34:11.853Z,49.32
2017-10-01T10:35:11.838Z,47.99
2017-10-01T10:36:11.833Z,48.16
2017-10-01T10:37:11.813Z,48.35
2017-10-01T10:38:11.800Z,48.74
2017-10-01T10:39:11.786Z,48.64
2017-10-01T10:40:11.779Z,48.93
2017-10-01T10:41:11.761Z,48.64
2017-10-01T10:42:11.748Z,48.54
2017-10-01T10:43:11.734Z,47.99
2017-10-01T10:44:11.721Z,48.25
2017-10-01T10:45:11.708Z,48.28
2017-10-01T10:46:11.694Z,48.08
2017-10-01T10:47:11.680Z,47.50
2017-10-01T10:48:11.670Z,47.72
2017-10-01T10:49:11.654Z,47.33
2017-10-01T10:50:11.641Z,46.97
2017-10-01T10:51:11.627Z,46.78
2017-10-01T10:52:11.614Z,46.68
2017-10-01T10:53:11.600Z,46.49
2017-10-01T10:54:11.587Z,46.58
2017-10-01T10:55:11.573Z,46.68
2017-10-01T10:56:11.561Z,46.68
2017-10-01T10:57:11.547Z,46.88
2017-10-01T10:58:11.534Z,46.88
2017-10-01T10:59:11.520Z,47.07
2017-10-01T11:00:11.508Z,47.26
2017-10-01T11:01:11.494Z,47.16
2017-10-01T11:02:11.506Z,46.97
2017-10-01T11:03:11.467Z,46.88
2017-10-01T11:04:11.454Z,46.97
2017-10-01T11:05:11.442Z,47.55
2017-10-01T11:06:11.431Z,47.36
2017-10-01T11:07:11.415Z,47.45
2017-10-01T11:08:11.402Z,47.74
2017-10-01T11:09:11.389Z,47.55
2017-10-01T11:10:11.376Z,47.55
2017-10-01T11:11:11.364Z,47.16
2017-10-01T11:12:11.349Z,47.19
2017-10-01T11:13:11.336Z,46.90
2017-10-01T11:14:11.323Z,46.51
2017-10-01T11:15:11.320Z,46.63
2017-10-01T11:16:11.329Z,46.15
2017-10-01T11:17:11.284Z,45.57
2017-10-01T11:18:11.271Z,45.10
2017-10-01T11:19:11.257Z,44.81
2017-10-01T11:20:11.245Z,44.84
2017-10-01T11:21:11.233Z,43.87
2017-10-01T11:22:11.222Z,44.06
2017-10-01T11:23:11.207Z,45.10
2017-10-01T11:24:11.195Z,45.01
2017-10-01T11:25:11.183Z,45.01
2017-10-01T11:26:11.171Z,45.20
2017-10-01T11:27:11.157Z,45.66
2017-10-01T11:28:11.146Z,45.49
2017-10-01T11:29:11.133Z,44.54
2017-10-01T11:30:11.121Z,43.99
2017-10-01T11:31:11.108Z,43.70
2017-10-01T11:32:11.096Z,43.77
2017-10-01T11:33:11.084Z,44.06
2017-10-01T11:34:11.073Z,43.79
2017-10-01T11:35:11.059Z,44.09
2017-10-01T11:36:11.047Z,43.12
2017-10-01T11:37:11.035Z,43.41
2017-10-01T11:38:11.025Z,43.89
2017-10-01T11:39:11.011Z,43.79
2017-10-01T11:40:11.015Z,43.58
2017-10-01T11:41:10.988Z,44.16
2017-10-01T11:42:10.976Z,44.16
2017-10-01T11:43:10.965Z,44.45
2017-10-01T11:44:10.953Z,44.74
2017-10-01T11:45:10.941Z,44.64
2017-10-01T11:46:10.930Z,43.99
2017-10-01T11:47:10.917Z,43.60
2017-10-01T11:48:10.906Z,43.89
2017-10-01T11:49:10.894Z,43.99
2017-10-01T11:50:10.905Z,43.89
2017-10-01T11:51:10.870Z,44.18
2017-10-01T11:52:10.858Z,43.96
2017-10-01T11:53:10.847Z,44.93
2017-10-01T11:54:10.838Z,45.13
2017-10-01T11:55:10.823Z,45.03
2017-10-01T11:56:10.810Z,44.93
2017-10-01T11:57:10.800Z,45.15
2017-10-01T11:58:10.789Z,43.72
2017-10-01T11:59:10.776Z,43.06
2017-10-01T12:00:10.765Z,42.21
2017-10-01T12:01:10.753Z,41.16
2017-10-01T12:02:10.741Z,40.48
2017-10-01T12:03:10.729Z,40.89
2017-10-01T12:04:10.717Z,40.21
2017-10-01T12:05:10.707Z,39.92
2017-10-01T12:06:10.695Z,40.11
2017-10-01T12:07:10.683Z,40.11
2017-10-01T12:08:10.672Z,39.92
2017-10-01T12:09:10.661Z,39.26
2017-10-01T12:10:10.653Z,39.28
2017-10-01T12:11:10.638Z,38.62
2017-10-01T12:12:10.628Z,37.18
2017-10-01T12:13:10.618Z,37.37
2017-10-01T12:14:10.607Z,37.76
2017-10-01T12:15:10.595Z,37.64
2017-10-01T12:16:10.585Z,37.64
2017-10-01T12:17:10.574Z,37.93
2017-10-01T12:18:10.565Z,37.35
2017-10-01T12:19:10.554Z,38.40
2017-10-01T12:20:10.543Z,38.56
2017-10-01T12:21:10.536Z,40.29
2017-10-01T12:22:10.523Z,40.95
2017-10-01T12:23:10.513Z,41.99
2017-10-01T12:24:10.502Z,42.48
2017-10-01T12:25:10.493Z,41.99
2017-10-01T12:26:10.483Z,42.38
2017-10-01T12:27:10.472Z,42.48
2017-10-01T12:28:10.462Z,42.96
2017-10-01T12:29:10.452Z,42.96
2017-10-01T12:30:10.442Z,42.86
2017-10-01T12:31:10.430Z,42.86
2017-10-01T12:32:10.420Z,43.16
2017-10-01T12:33:10.413Z,43.26
2017-10-01T12:34:10.401Z,43.06
2017-10-01T12:35:10.389Z,43.06
2017-10-01T12:36:10.379Z,43.16
2017-10-01T12:37:10.382Z,43.26
2017-10-01T12:38:10.360Z,43.35
2017-10-01T12:39:10.349Z,43.91
2017-10-01T12:40:10.344Z,43.72
2017-10-01T12:41:10.328Z,43.82
2017-10-01T12:42:10.319Z,43.82
2017-10-01T12:43:10.307Z,44.30
2017-10-01T12:44:10.297Z,43.62
2017-10-01T12:45:10.285Z,43.52
2017-10-01T12:46:10.276Z,44.67
2017-10-01T12:47:10.265Z,44.27
2017-10-01T12:48:10.254Z,45.25
2017-10-01T12:49:10.244Z,44.78
2017-10-01T12:50:10.233Z,45.07
2017-10-01T12:51:10.224Z,45.17
2017-10-01T12:52:10.213Z,45.07